Eagle River, Michigan
Current Conditions -  °F | °C
As of 6:13 AM on Sunday 21 Dec 2014 (Local Time) from KCMX Reporting Station
Overcast Overcast  
Wind Chill: 22°   Ceiling: 3600
Heat Index: 28°   Visibility: 10mi
Dew Point: 24°   Wind: 6mph
Humidity: 85%   Direction: 150°SSE
Pressure: 30.05"   Gusts: NA
Location:  47.3621°N, 88.1281°W
Report Text: KCMX 211113Z AUTO 15005KT 10SM SCT012 OVC036 M02/M04 A3005 RMK AO2 T10221044
Loading
Personal Weather Stations






























Interactive Weather Map New forecast layout! Learn more

10-Day Weather Forecast

Advertisements
Track Severe Weather on mobile